sensor_id;sensor_type;location;lat;lon;timestamp;P1;durP1;ratioP1;P2;durP2;ratioP2
43114;SDS011;28727;50.068;14.452;2022-10-23T00:01:35;16.92;;;9.25;;
43114;SDS011;28727;50.068;14.452;2022-10-23T00:04:18;16.83;;;9.90;;
43114;SDS011;28727;50.068;14.452;2022-10-23T00:06:51;15.45;;;9.15;;
43114;SDS011;28727;50.068;14.452;2022-10-23T00:09:25;20.10;;;9.30;;
43114;SDS011;28727;50.068;14.452;2022-10-23T00:11:56;15.50;;;8.77;;
43114;SDS011;28727;50.068;14.452;2022-10-23T00:14:28;13.02;;;7.57;;
43114;SDS011;28727;50.068;14.452;2022-10-23T00:17:12;13.82;;;7.75;;
43114;SDS011;28727;50.068;14.452;2022-10-23T00:19:47;12.13;;;7.90;;
43114;SDS011;28727;50.068;14.452;2022-10-23T00:22:19;14.32;;;7.07;;
43114;SDS011;28727;50.068;14.452;2022-10-23T00:24:51;14.75;;;8.25;;
43114;SDS011;28727;50.068;14.452;2022-10-23T00:27:26;12.77;;;8.00;;
43114;SDS011;28727;50.068;14.452;2022-10-23T00:30:02;14.95;;;8.18;;
43114;SDS011;28727;50.068;14.452;2022-10-23T00:32:39;12.73;;;8.63;;
43114;SDS011;28727;50.068;14.452;2022-10-23T00:35:10;11.10;;;8.65;;
43114;SDS011;28727;50.068;14.452;2022-10-23T00:37:42;13.07;;;8.88;;
43114;SDS011;28727;50.068;14.452;2022-10-23T00:40:14;13.30;;;8.10;;
43114;SDS011;28727;50.068;14.452;2022-10-23T00:42:47;11.73;;;8.18;;
43114;SDS011;28727;50.068;14.452;2022-10-23T00:45:25;15.98;;;8.65;;
43114;SDS011;28727;50.068;14.452;2022-10-23T00:48:04;12.55;;;8.73;;
43114;SDS011;28727;50.068;14.452;2022-10-23T00:50:42;15.10;;;8.38;;
43114;SDS011;28727;50.068;14.452;2022-10-23T00:53:15;14.60;;;8.15;;
43114;SDS011;28727;50.068;14.452;2022-10-23T00:55:52;16.80;;;10.00;;
43114;SDS011;28727;50.068;14.452;2022-10-23T00:58:26;14.07;;;8.95;;
43114;SDS011;28727;50.068;14.452;2022-10-23T01:00:57;15.32;;;9.02;;
43114;SDS011;28727;50.068;14.452;2022-10-23T01:03:30;14.10;;;8.23;;
43114;SDS011;28727;50.068;14.452;2022-10-23T01:06:04;12.48;;;8.13;;
43114;SDS011;28727;50.068;14.452;2022-10-23T01:08:49;16.40;;;9.37;;
43114;SDS011;28727;50.068;14.452;2022-10-23T01:20:31;13.63;;;8.88;;
43114;SDS011;28727;50.068;14.452;2022-10-23T01:23:31;14.35;;;8.55;;
43114;SDS011;28727;50.068;14.452;2022-10-23T01:29:19;11.90;;;8.15;;
43114;SDS011;28727;50.068;14.452;2022-10-23T01:32:12;13.38;;;8.43;;
43114;SDS011;28727;50.068;14.452;2022-10-23T01:34:59;15.90;;;8.65;;
43114;SDS011;28727;50.068;14.452;2022-10-23T01:37:56;19.65;;;9.00;;
43114;SDS011;28727;50.068;14.452;2022-10-23T01:40:36;15.23;;;9.52;;
43114;SDS011;28727;50.068;14.452;2022-10-23T01:43:25;14.32;;;9.50;;
43114;SDS011;28727;50.068;14.452;2022-10-23T01:46:02;15.07;;;8.93;;
43114;SDS011;28727;50.068;14.452;2022-10-23T01:48:45;14.40;;;9.20;;
43114;SDS011;28727;50.068;14.452;2022-10-23T01:51:26;13.80;;;8.93;;
43114;SDS011;28727;50.068;14.452;2022-10-23T01:54:09;12.68;;;8.88;;
43114;SDS011;28727;50.068;14.452;2022-10-23T01:56:45;14.48;;;8.45;;
43114;SDS011;28727;50.068;14.452;2022-10-23T01:59:26;11.85;;;8.32;;
43114;SDS011;28727;50.068;14.452;2022-10-23T02:02:05;15.93;;;9.55;;
43114;SDS011;28727;50.068;14.452;2022-10-23T02:05:30;13.63;;;8.88;;
43114;SDS011;28727;50.068;14.452;2022-10-23T02:08:00;14.75;;;8.93;;
43114;SDS011;28727;50.068;14.452;2022-10-23T02:10:48;14.20;;;9.00;;
43114;SDS011;28727;50.068;14.452;2022-10-23T02:16:42;13.40;;;8.45;;
43114;SDS011;28727;50.068;14.452;2022-10-23T02:19:30;12.60;;;8.55;;
43114;SDS011;28727;50.068;14.452;2022-10-23T02:22:18;14.60;;;9.05;;
43114;SDS011;28727;50.068;14.452;2022-10-23T02:24:59;11.25;;;8.65;;
43114;SDS011;28727;50.068;14.452;2022-10-23T02:28:04;14.52;;;8.18;;
43114;SDS011;28727;50.068;14.452;2022-10-23T02:30:46;14.63;;;9.27;;
43114;SDS011;28727;50.068;14.452;2022-10-23T02:33:22;23.55;;;12.90;;
43114;SDS011;28727;50.068;14.452;2022-10-23T02:35:57;20.58;;;11.75;;
43114;SDS011;28727;50.068;14.452;2022-10-23T02:38:38;15.60;;;10.27;;
43114;SDS011;28727;50.068;14.452;2022-10-23T02:50:09;22.90;;;12.98;;
43114;SDS011;28727;50.068;14.452;2022-10-23T02:53:04;22.38;;;11.27;;
43114;SDS011;28727;50.068;14.452;2022-10-23T02:59:05;16.63;;;10.90;;
43114;SDS011;28727;50.068;14.452;2022-10-23T03:01:48;18.30;;;11.35;;
43114;SDS011;28727;50.068;14.452;2022-10-23T03:04:27;20.33;;;11.38;;
43114;SDS011;28727;50.068;14.452;2022-10-23T03:07:03;24.90;;;15.18;;
43114;SDS011;28727;50.068;14.452;2022-10-23T03:09:35;32.45;;;17.02;;
43114;SDS011;28727;50.068;14.452;2022-10-23T03:12:07;31.38;;;17.88;;
43114;SDS011;28727;50.068;14.452;2022-10-23T03:14:41;31.80;;;16.67;;
43114;SDS011;28727;50.068;14.452;2022-10-23T03:17:13;26.83;;;15.70;;
43114;SDS011;28727;50.068;14.452;2022-10-23T03:19:44;24.50;;;16.02;;
43114;SDS011;28727;50.068;14.452;2022-10-23T03:22:17;28.42;;;15.73;;
43114;SDS011;28727;50.068;14.452;2022-10-23T03:24:51;23.27;;;13.83;;
43114;SDS011;28727;50.068;14.452;2022-10-23T03:27:25;25.90;;;15.20;;
43114;SDS011;28727;50.068;14.452;2022-10-23T03:29:58;24.88;;;15.52;;
43114;SDS011;28727;50.068;14.452;2022-10-23T03:32:30;37.72;;;19.23;;
43114;SDS011;28727;50.068;14.452;2022-10-23T03:35:06;87.30;;;36.47;;
43114;SDS011;28727;50.068;14.452;2022-10-23T03:37:38;76.70;;;33.42;;
43114;SDS011;28727;50.068;14.452;2022-10-23T03:40:11;71.45;;;31.02;;
43114;SDS011;28727;50.068;14.452;2022-10-23T03:42:44;36.63;;;18.92;;
43114;SDS011;28727;50.068;14.452;2022-10-23T03:45:20;30.92;;;16.98;;
43114;SDS011;28727;50.068;14.452;2022-10-23T03:47:55;30.73;;;16.63;;
43114;SDS011;28727;50.068;14.452;2022-10-23T03:50:33;27.80;;;17.02;;
43114;SDS011;28727;50.068;14.452;2022-10-23T03:53:06;29.75;;;18.25;;
43114;SDS011;28727;50.068;14.452;2022-10-23T03:55:38;28.05;;;16.50;;
43114;SDS011;28727;50.068;14.452;2022-10-23T03:58:13;46.55;;;24.17;;
43114;SDS011;28727;50.068;14.452;2022-10-23T04:00:46;48.47;;;23.42;;
43114;SDS011;28727;50.068;14.452;2022-10-23T04:03:18;51.67;;;25.83;;
43114;SDS011;28727;50.068;14.452;2022-10-23T04:05:50;46.75;;;23.00;;
43114;SDS011;28727;50.068;14.452;2022-10-23T04:08:26;42.10;;;21.60;;
43114;SDS011;28727;50.068;14.452;2022-10-23T04:11:02;47.67;;;24.50;;
43114;SDS011;28727;50.068;14.452;2022-10-23T04:13:45;50.15;;;27.70;;
43114;SDS011;28727;50.068;14.452;2022-10-23T04:16:17;48.10;;;25.95;;
43114;SDS011;28727;50.068;14.452;2022-10-23T04:18:49;61.08;;;30.73;;
43114;SDS011;28727;50.068;14.452;2022-10-23T04:21:21;50.28;;;25.00;;
43114;SDS011;28727;50.068;14.452;2022-10-23T04:23:52;42.25;;;23.40;;
43114;SDS011;28727;50.068;14.452;2022-10-23T04:26:26;39.58;;;22.05;;
43114;SDS011;28727;50.068;14.452;2022-10-23T04:28:57;47.00;;;25.45;;
43114;SDS011;28727;50.068;14.452;2022-10-23T04:31:33;49.63;;;27.15;;
43114;SDS011;28727;50.068;14.452;2022-10-23T04:34:04;38.35;;;22.95;;
43114;SDS011;28727;50.068;14.452;2022-10-23T04:36:44;41.90;;;23.65;;
43114;SDS011;28727;50.068;14.452;2022-10-23T04:39:19;47.63;;;24.75;;
43114;SDS011;28727;50.068;14.452;2022-10-23T04:41:51;47.47;;;26.08;;
43114;SDS011;28727;50.068;14.452;2022-10-23T04:44:24;41.40;;;23.17;;
43114;SDS011;28727;50.068;14.452;2022-10-23T04:46:56;40.17;;;22.83;;
43114;SDS011;28727;50.068;14.452;2022-10-23T04:49:28;34.03;;;20.73;;
43114;SDS011;28727;50.068;14.452;2022-10-23T04:52:15;28.38;;;17.23;;
43114;SDS011;28727;50.068;14.452;2022-10-23T04:55:09;29.23;;;18.95;;
43114;SDS011;28727;50.068;14.452;2022-10-23T04:58:10;25.90;;;16.02;;
43114;SDS011;28727;50.068;14.452;2022-10-23T05:00:45;30.45;;;20.27;;
43114;SDS011;28727;50.068;14.452;2022-10-23T05:03:26;32.65;;;19.92;;
43114;SDS011;28727;50.068;14.452;2022-10-23T05:05:58;42.92;;;21.48;;
43114;SDS011;28727;50.068;14.452;2022-10-23T05:08:52;29.23;;;18.35;;
43114;SDS011;28727;50.068;14.452;2022-10-23T05:11:47;32.22;;;17.92;;
43114;SDS011;28727;50.068;14.452;2022-10-23T05:14:19;33.15;;;19.75;;
43114;SDS011;28727;50.068;14.452;2022-10-23T05:16:54;31.92;;;19.45;;
43114;SDS011;28727;50.068;14.452;2022-10-23T05:19:35;25.95;;;16.13;;
43114;SDS011;28727;50.068;14.452;2022-10-23T05:22:11;32.35;;;19.17;;
43114;SDS011;28727;50.068;14.452;2022-10-23T05:24:52;31.23;;;19.13;;
43114;SDS011;28727;50.068;14.452;2022-10-23T05:27:28;24.67;;;15.32;;
43114;SDS011;28727;50.068;14.452;2022-10-23T05:29:59;26.60;;;16.92;;
43114;SDS011;28727;50.068;14.452;2022-10-23T05:32:37;28.88;;;16.45;;
43114;SDS011;28727;50.068;14.452;2022-10-23T05:35:12;25.52;;;14.88;;
43114;SDS011;28727;50.068;14.452;2022-10-23T05:37:52;23.15;;;14.02;;
43114;SDS011;28727;50.068;14.452;2022-10-23T05:40:28;21.55;;;13.95;;
43114;SDS011;28727;50.068;14.452;2022-10-23T05:43:11;19.65;;;13.30;;
43114;SDS011;28727;50.068;14.452;2022-10-23T05:46:07;22.70;;;13.37;;
43114;SDS011;28727;50.068;14.452;2022-10-23T05:48:57;22.80;;;13.45;;
43114;SDS011;28727;50.068;14.452;2022-10-23T05:51:58;19.95;;;13.70;;
43114;SDS011;28727;50.068;14.452;2022-10-23T05:54:52;21.77;;;13.38;;
43114;SDS011;28727;50.068;14.452;2022-10-23T05:57:44;20.23;;;13.50;;
43114;SDS011;28727;50.068;14.452;2022-10-23T06:00:34;21.75;;;13.77;;
43114;SDS011;28727;50.068;14.452;2022-10-23T06:03:25;18.35;;;12.43;;
43114;SDS011;28727;50.068;14.452;2022-10-23T06:05:57;18.67;;;12.80;;
43114;SDS011;28727;50.068;14.452;2022-10-23T06:08:42;16.48;;;11.88;;
43114;SDS011;28727;50.068;14.452;2022-10-23T06:11:14;17.75;;;11.80;;
43114;SDS011;28727;50.068;14.452;2022-10-23T06:13:58;19.77;;;12.10;;
43114;SDS011;28727;50.068;14.452;2022-10-23T06:16:31;16.48;;;10.48;;
43114;SDS011;28727;50.068;14.452;2022-10-23T06:19:03;10.82;;;8.05;;
43114;SDS011;28727;50.068;14.452;2022-10-23T06:21:36;10.05;;;7.63;;
43114;SDS011;28727;50.068;14.452;2022-10-23T06:24:08;12.65;;;9.10;;
43114;SDS011;28727;50.068;14.452;2022-10-23T06:26:47;12.20;;;8.07;;
43114;SDS011;28727;50.068;14.452;2022-10-23T06:29:29;12.80;;;7.43;;
43114;SDS011;28727;50.068;14.452;2022-10-23T06:32:01;11.45;;;8.48;;
43114;SDS011;28727;50.068;14.452;2022-10-23T06:34:33;13.10;;;8.50;;
43114;SDS011;28727;50.068;14.452;2022-10-23T06:37:05;14.80;;;7.93;;
43114;SDS011;28727;50.068;14.452;2022-10-23T06:39:43;11.27;;;7.55;;
43114;SDS011;28727;50.068;14.452;2022-10-23T06:42:18;15.98;;;8.55;;
43114;SDS011;28727;50.068;14.452;2022-10-23T06:45:00;11.57;;;8.38;;
43114;SDS011;28727;50.068;14.452;2022-10-23T06:47:43;10.15;;;7.80;;
43114;SDS011;28727;50.068;14.452;2022-10-23T06:50:47;13.70;;;7.05;;
43114;SDS011;28727;50.068;14.452;2022-10-23T06:53:25;10.50;;;7.45;;
43114;SDS011;28727;50.068;14.452;2022-10-23T06:56:09;11.60;;;7.10;;
43114;SDS011;28727;50.068;14.452;2022-10-23T06:58:44;10.50;;;6.80;;
43114;SDS011;28727;50.068;14.452;2022-10-23T07:01:18;10.32;;;7.00;;
43114;SDS011;28727;50.068;14.452;2022-10-23T07:03:51;9.10;;;7.35;;
43114;SDS011;28727;50.068;14.452;2022-10-23T07:06:28;9.73;;;6.90;;
43114;SDS011;28727;50.068;14.452;2022-10-23T07:09:02;13.13;;;7.15;;
43114;SDS011;28727;50.068;14.452;2022-10-23T07:11:54;10.23;;;6.88;;
43114;SDS011;28727;50.068;14.452;2022-10-23T07:14:41;10.10;;;6.82;;
43114;SDS011;28727;50.068;14.452;2022-10-23T07:17:14;10.73;;;7.18;;
43114;SDS011;28727;50.068;14.452;2022-10-23T07:19:47;10.90;;;7.00;;
43114;SDS011;28727;50.068;14.452;2022-10-23T07:22:23;7.07;;;6.30;;
43114;SDS011;28727;50.068;14.452;2022-10-23T07:25:18;7.65;;;6.30;;
43114;SDS011;28727;50.068;14.452;2022-10-23T07:27:50;13.50;;;6.45;;
43114;SDS011;28727;50.068;14.452;2022-10-23T07:30:24;6.30;;;5.38;;
43114;SDS011;28727;50.068;14.452;2022-10-23T07:33:00;8.13;;;5.78;;
43114;SDS011;28727;50.068;14.452;2022-10-23T07:35:48;11.60;;;6.18;;
43114;SDS011;28727;50.068;14.452;2022-10-23T07:38:30;7.60;;;5.10;;
43114;SDS011;28727;50.068;14.452;2022-10-23T07:41:03;6.20;;;4.97;;
43114;SDS011;28727;50.068;14.452;2022-10-23T07:43:42;9.13;;;5.22;;
43114;SDS011;28727;50.068;14.452;2022-10-23T07:46:13;6.95;;;5.00;;
43114;SDS011;28727;50.068;14.452;2022-10-23T07:48:46;7.75;;;5.05;;
43114;SDS011;28727;50.068;14.452;2022-10-23T07:51:19;6.93;;;5.10;;
43114;SDS011;28727;50.068;14.452;2022-10-23T07:53:57;7.70;;;4.97;;
43114;SDS011;28727;50.068;14.452;2022-10-23T07:56:47;7.28;;;4.40;;
43114;SDS011;28727;50.068;14.452;2022-10-23T07:59:23;6.32;;;4.40;;
43114;SDS011;28727;50.068;14.452;2022-10-23T08:01:57;5.40;;;4.32;;
43114;SDS011;28727;50.068;14.452;2022-10-23T08:04:37;8.82;;;4.50;;
43114;SDS011;28727;50.068;14.452;2022-10-23T08:07:20;6.60;;;4.43;;
43114;SDS011;28727;50.068;14.452;2022-10-23T08:12:25;7.93;;;4.90;;
43114;SDS011;28727;50.068;14.452;2022-10-23T08:14:58;5.63;;;4.50;;
43114;SDS011;28727;50.068;14.452;2022-10-23T08:17:38;7.18;;;4.68;;
43114;SDS011;28727;50.068;14.452;2022-10-23T08:20:20;8.07;;;4.60;;
43114;SDS011;28727;50.068;14.452;2022-10-23T08:22:53;4.72;;;3.90;;
43114;SDS011;28727;50.068;14.452;2022-10-23T08:25:28;7.63;;;4.43;;
43114;SDS011;28727;50.068;14.452;2022-10-23T08:28:04;6.22;;;4.28;;
43114;SDS011;28727;50.068;14.452;2022-10-23T08:30:44;5.32;;;4.05;;
43114;SDS011;28727;50.068;14.452;2022-10-23T08:33:17;8.77;;;4.30;;
43114;SDS011;28727;50.068;14.452;2022-10-23T08:35:52;6.50;;;4.55;;
43114;SDS011;28727;50.068;14.452;2022-10-23T08:38:33;6.32;;;3.55;;
43114;SDS011;28727;50.068;14.452;2022-10-23T08:41:20;8.93;;;4.20;;
43114;SDS011;28727;50.068;14.452;2022-10-23T08:46:48;6.90;;;4.40;;
43114;SDS011;28727;50.068;14.452;2022-10-23T08:49:46;7.75;;;4.95;;
43114;SDS011;28727;50.068;14.452;2022-10-23T08:57:57;6.57;;;4.07;;
43114;SDS011;28727;50.068;14.452;2022-10-23T09:00:34;4.75;;;3.60;;
43114;SDS011;28727;50.068;14.452;2022-10-23T09:03:08;5.63;;;3.90;;
43114;SDS011;28727;50.068;14.452;2022-10-23T09:09:03;5.38;;;3.63;;
43114;SDS011;28727;50.068;14.452;2022-10-23T09:12:08;5.75;;;4.30;;
43114;SDS011;28727;50.068;14.452;2022-10-23T09:17:39;6.32;;;3.92;;
43114;SDS011;28727;50.068;14.452;2022-10-23T09:20:18;5.95;;;3.60;;
43114;SDS011;28727;50.068;14.452;2022-10-23T09:23:13;4.45;;;3.65;;
43114;SDS011;28727;50.068;14.452;2022-10-23T09:25:48;6.47;;;3.97;;
43114;SDS011;28727;50.068;14.452;2022-10-23T09:28:27;5.30;;;3.50;;
43114;SDS011;28727;50.068;14.452;2022-10-23T09:31:05;6.03;;;3.58;;
43114;SDS011;28727;50.068;14.452;2022-10-23T09:33:39;6.57;;;3.63;;
43114;SDS011;28727;50.068;14.452;2022-10-23T09:38:48;9.45;;;4.07;;
43114;SDS011;28727;50.068;14.452;2022-10-23T09:41:23;6.47;;;3.75;;
43114;SDS011;28727;50.068;14.452;2022-10-23T09:44:10;4.25;;;3.45;;
43114;SDS011;28727;50.068;14.452;2022-10-23T09:47:14;7.50;;;3.30;;
43114;SDS011;28727;50.068;14.452;2022-10-23T09:49:54;7.30;;;4.05;;
43114;SDS011;28727;50.068;14.452;2022-10-23T09:52:29;6.60;;;3.75;;
43114;SDS011;28727;50.068;14.452;2022-10-23T09:55:28;5.00;;;3.72;;
43114;SDS011;28727;50.068;14.452;2022-10-23T09:57:59;6.57;;;3.30;;
43114;SDS011;28727;50.068;14.452;2022-10-23T10:00:33;8.60;;;3.80;;
43114;SDS011;28727;50.068;14.452;2022-10-23T10:03:21;6.80;;;4.22;;
43114;SDS011;28727;50.068;14.452;2022-10-23T10:06:24;6.75;;;4.45;;
43114;SDS011;28727;50.068;14.452;2022-10-23T10:08:59;5.22;;;3.85;;
43114;SDS011;28727;50.068;14.452;2022-10-23T10:11:38;5.32;;;4.18;;
43114;SDS011;28727;50.068;14.452;2022-10-23T10:22:52;5.53;;;3.53;;
43114;SDS011;28727;50.068;14.452;2022-10-23T10:34:54;5.38;;;3.80;;
43114;SDS011;28727;50.068;14.452;2022-10-23T10:44:09;5.75;;;4.32;;
43114;SDS011;28727;50.068;14.452;2022-10-23T10:49:54;6.88;;;5.22;;
43114;SDS011;28727;50.068;14.452;2022-10-23T10:53:30;7.57;;;5.43;;
43114;SDS011;28727;50.068;14.452;2022-10-23T10:56:28;7.68;;;5.55;;
43114;SDS011;28727;50.068;14.452;2022-10-23T11:02:26;9.45;;;5.70;;
43114;SDS011;28727;50.068;14.452;2022-10-23T11:08:17;7.20;;;5.85;;
43114;SDS011;28727;50.068;14.452;2022-10-23T11:10:57;8.48;;;6.78;;
43114;SDS011;28727;50.068;14.452;2022-10-23T11:13:37;6.75;;;5.82;;
43114;SDS011;28727;50.068;14.452;2022-10-23T11:16:34;7.47;;;6.22;;
43114;SDS011;28727;50.068;14.452;2022-10-23T11:19:20;9.35;;;6.95;;
43114;SDS011;28727;50.068;14.452;2022-10-23T11:22:03;7.75;;;6.93;;
43114;SDS011;28727;50.068;14.452;2022-10-23T11:25:04;9.48;;;7.28;;
43114;SDS011;28727;50.068;14.452;2022-10-23T11:27:51;9.40;;;7.93;;
43114;SDS011;28727;50.068;14.452;2022-10-23T11:39:25;11.52;;;9.23;;
43114;SDS011;28727;50.068;14.452;2022-10-23T11:47:30;12.10;;;8.50;;
43114;SDS011;28727;50.068;14.452;2022-10-23T11:50:11;12.45;;;9.50;;
43114;SDS011;28727;50.068;14.452;2022-10-23T11:58:53;11.40;;;8.90;;
43114;SDS011;28727;50.068;14.452;2022-10-23T12:01:28;14.00;;;10.65;;
43114;SDS011;28727;50.068;14.452;2022-10-23T12:06:46;14.40;;;12.25;;
43114;SDS011;28727;50.068;14.452;2022-10-23T12:09:24;16.00;;;11.93;;
43114;SDS011;28727;50.068;14.452;2022-10-23T12:14:47;16.17;;;11.82;;
43114;SDS011;28727;50.068;14.452;2022-10-23T12:28:31;13.05;;;11.43;;
43114;SDS011;28727;50.068;14.452;2022-10-23T12:34:07;16.30;;;13.38;;
43114;SDS011;28727;50.068;14.452;2022-10-23T12:39:57;16.58;;;13.77;;
43114;SDS011;28727;50.068;14.452;2022-10-23T12:42:32;18.67;;;13.80;;
43114;SDS011;28727;50.068;14.452;2022-10-23T12:45:12;18.45;;;14.85;;
43114;SDS011;28727;50.068;14.452;2022-10-23T12:47:51;22.35;;;15.85;;
43114;SDS011;28727;50.068;14.452;2022-10-23T12:50:24;23.27;;;16.55;;
43114;SDS011;28727;50.068;14.452;2022-10-23T12:53:02;21.75;;;17.08;;
43114;SDS011;28727;50.068;14.452;2022-10-23T12:55:46;21.75;;;18.00;;
43114;SDS011;28727;50.068;14.452;2022-10-23T12:58:25;21.75;;;17.58;;
43114;SDS011;28727;50.068;14.452;2022-10-23T13:01:03;22.55;;;16.75;;
43114;SDS011;28727;50.068;14.452;2022-10-23T13:03:37;21.63;;;17.05;;
43114;SDS011;28727;50.068;14.452;2022-10-23T13:06:10;19.15;;;14.98;;
43114;SDS011;28727;50.068;14.452;2022-10-23T13:08:43;18.40;;;14.82;;
43114;SDS011;28727;50.068;14.452;2022-10-23T13:11:37;18.02;;;15.27;;
43114;SDS011;28727;50.068;14.452;2022-10-23T13:14:12;16.35;;;13.77;;
43114;SDS011;28727;50.068;14.452;2022-10-23T13:16:46;17.10;;;13.93;;
43114;SDS011;28727;50.068;14.452;2022-10-23T13:19:30;16.55;;;14.23;;
43114;SDS011;28727;50.068;14.452;2022-10-23T13:22:03;14.75;;;13.10;;
43114;SDS011;28727;50.068;14.452;2022-10-23T13:24:45;14.15;;;12.10;;
43114;SDS011;28727;50.068;14.452;2022-10-23T13:27:51;17.67;;;12.15;;
43114;SDS011;28727;50.068;14.452;2022-10-23T13:30:32;14.18;;;11.80;;
43114;SDS011;28727;50.068;14.452;2022-10-23T13:33:20;13.98;;;11.80;;
43114;SDS011;28727;50.068;14.452;2022-10-23T13:36:03;13.18;;;10.65;;
43114;SDS011;28727;50.068;14.452;2022-10-23T13:38:58;14.52;;;11.57;;
43114;SDS011;28727;50.068;14.452;2022-10-23T13:41:40;17.75;;;10.95;;
43114;SDS011;28727;50.068;14.452;2022-10-23T13:44:14;17.77;;;10.60;;
43114;SDS011;28727;50.068;14.452;2022-10-23T13:46:48;15.25;;;11.65;;
43114;SDS011;28727;50.068;14.452;2022-10-23T13:49:24;12.98;;;10.77;;
43114;SDS011;28727;50.068;14.452;2022-10-23T13:51:58;16.97;;;11.43;;
43114;SDS011;28727;50.068;14.452;2022-10-23T13:54:30;14.18;;;11.30;;
43114;SDS011;28727;50.068;14.452;2022-10-23T13:57:03;14.88;;;10.85;;
43114;SDS011;28727;50.068;14.452;2022-10-23T13:59:36;16.23;;;11.23;;
43114;SDS011;28727;50.068;14.452;2022-10-23T14:02:17;17.08;;;11.20;;
43114;SDS011;28727;50.068;14.452;2022-10-23T14:04:53;14.60;;;10.52;;
43114;SDS011;28727;50.068;14.452;2022-10-23T14:07:25;14.38;;;10.30;;
43114;SDS011;28727;50.068;14.452;2022-10-23T14:10:00;13.60;;;11.38;;
43114;SDS011;28727;50.068;14.452;2022-10-23T14:12:37;15.30;;;10.85;;
43114;SDS011;28727;50.068;14.452;2022-10-23T14:15:13;16.00;;;11.80;;
43114;SDS011;28727;50.068;14.452;2022-10-23T14:17:44;15.05;;;11.27;;
43114;SDS011;28727;50.068;14.452;2022-10-23T14:20:16;14.85;;;11.88;;
43114;SDS011;28727;50.068;14.452;2022-10-23T14:22:49;19.38;;;13.32;;
43114;SDS011;28727;50.068;14.452;2022-10-23T14:25:21;18.73;;;12.90;;
43114;SDS011;28727;50.068;14.452;2022-10-23T14:27:54;16.58;;;12.40;;
43114;SDS011;28727;50.068;14.452;2022-10-23T14:30:25;22.25;;;13.40;;
43114;SDS011;28727;50.068;14.452;2022-10-23T14:32:59;19.95;;;12.95;;
43114;SDS011;28727;50.068;14.452;2022-10-23T14:35:34;17.45;;;13.80;;
43114;SDS011;28727;50.068;14.452;2022-10-23T14:38:10;19.88;;;14.10;;
43114;SDS011;28727;50.068;14.452;2022-10-23T14:40:45;17.92;;;12.95;;
43114;SDS011;28727;50.068;14.452;2022-10-23T14:43:17;19.40;;;14.07;;
43114;SDS011;28727;50.068;14.452;2022-10-23T14:45:52;16.67;;;12.82;;
43114;SDS011;28727;50.068;14.452;2022-10-23T14:48:23;20.02;;;13.32;;
43114;SDS011;28727;50.068;14.452;2022-10-23T14:50:57;19.50;;;13.10;;
43114;SDS011;28727;50.068;14.452;2022-10-23T14:53:34;22.45;;;14.23;;
43114;SDS011;28727;50.068;14.452;2022-10-23T14:56:06;21.88;;;13.88;;
43114;SDS011;28727;50.068;14.452;2022-10-23T14:58:42;20.70;;;14.10;;
43114;SDS011;28727;50.068;14.452;2022-10-23T15:01:14;20.20;;;14.57;;
43114;SDS011;28727;50.068;14.452;2022-10-23T15:03:46;17.63;;;13.63;;
43114;SDS011;28727;50.068;14.452;2022-10-23T15:06:21;18.63;;;12.88;;
43114;SDS011;28727;50.068;14.452;2022-10-23T15:08:54;15.77;;;12.38;;
43114;SDS011;28727;50.068;14.452;2022-10-23T15:11:28;16.73;;;12.88;;
43114;SDS011;28727;50.068;14.452;2022-10-23T15:14:02;18.10;;;11.98;;
43114;SDS011;28727;50.068;14.452;2022-10-23T15:16:37;17.35;;;12.43;;
43114;SDS011;28727;50.068;14.452;2022-10-23T15:19:12;17.20;;;11.77;;
43114;SDS011;28727;50.068;14.452;2022-10-23T15:21:49;17.83;;;11.80;;
43114;SDS011;28727;50.068;14.452;2022-10-23T15:24:21;15.68;;;11.48;;
43114;SDS011;28727;50.068;14.452;2022-10-23T15:26:57;17.13;;;12.45;;
43114;SDS011;28727;50.068;14.452;2022-10-23T15:29:33;16.45;;;11.25;;
43114;SDS011;28727;50.068;14.452;2022-10-23T15:34:41;15.27;;;11.43;;
43114;SDS011;28727;50.068;14.452;2022-10-23T15:37:20;14.63;;;11.80;;
43114;SDS011;28727;50.068;14.452;2022-10-23T15:39:52;17.33;;;12.10;;
43114;SDS011;28727;50.068;14.452;2022-10-23T15:42:28;15.88;;;11.77;;
43114;SDS011;28727;50.068;14.452;2022-10-23T15:45:00;14.20;;;10.35;;
43114;SDS011;28727;50.068;14.452;2022-10-23T15:47:32;14.52;;;11.23;;
43114;SDS011;28727;50.068;14.452;2022-10-23T15:50:04;16.75;;;11.18;;
43114;SDS011;28727;50.068;14.452;2022-10-23T15:52:41;16.02;;;10.98;;
43114;SDS011;28727;50.068;14.452;2022-10-23T15:55:13;16.95;;;10.70;;
43114;SDS011;28727;50.068;14.452;2022-10-23T15:57:48;15.00;;;10.38;;
43114;SDS011;28727;50.068;14.452;2022-10-23T16:00:21;15.10;;;10.50;;
43114;SDS011;28727;50.068;14.452;2022-10-23T16:02:53;14.75;;;10.45;;
43114;SDS011;28727;50.068;14.452;2022-10-23T16:05:25;14.90;;;11.48;;
43114;SDS011;28727;50.068;14.452;2022-10-23T16:07:56;18.58;;;11.65;;
43114;SDS011;28727;50.068;14.452;2022-10-23T16:10:28;15.02;;;10.55;;
43114;SDS011;28727;50.068;14.452;2022-10-23T16:13:00;17.45;;;11.35;;
43114;SDS011;28727;50.068;14.452;2022-10-23T16:15:38;18.40;;;11.52;;
43114;SDS011;28727;50.068;14.452;2022-10-23T16:18:10;18.83;;;11.63;;
43114;SDS011;28727;50.068;14.452;2022-10-23T16:20:43;16.23;;;11.85;;
43114;SDS011;28727;50.068;14.452;2022-10-23T16:23:15;18.90;;;11.52;;
43114;SDS011;28727;50.068;14.452;2022-10-23T16:25:47;20.10;;;11.52;;
43114;SDS011;28727;50.068;14.452;2022-10-23T16:28:25;17.75;;;11.95;;
43114;SDS011;28727;50.068;14.452;2022-10-23T16:30:57;16.00;;;12.30;;
43114;SDS011;28727;50.068;14.452;2022-10-23T16:33:29;17.38;;;11.95;;
43114;SDS011;28727;50.068;14.452;2022-10-23T16:36:02;21.17;;;12.27;;
43114;SDS011;28727;50.068;14.452;2022-10-23T16:39:25;24.27;;;12.27;;
43114;SDS011;28727;50.068;14.452;2022-10-23T16:42:15;19.10;;;12.63;;
43114;SDS011;28727;50.068;14.452;2022-10-23T16:45:07;24.58;;;12.98;;
43114;SDS011;28727;50.068;14.452;2022-10-23T16:47:42;19.48;;;12.60;;
43114;SDS011;28727;50.068;14.452;2022-10-23T16:50:15;21.15;;;11.70;;
43114;SDS011;28727;50.068;14.452;2022-10-23T16:52:48;17.27;;;12.20;;
43114;SDS011;28727;50.068;14.452;2022-10-23T16:55:23;18.10;;;13.05;;
43114;SDS011;28727;50.068;14.452;2022-10-23T16:57:55;21.98;;;12.43;;
43114;SDS011;28727;50.068;14.452;2022-10-23T17:00:28;21.20;;;12.68;;
43114;SDS011;28727;50.068;14.452;2022-10-23T17:03:05;20.55;;;14.18;;
43114;SDS011;28727;50.068;14.452;2022-10-23T17:05:40;19.70;;;12.40;;
43114;SDS011;28727;50.068;14.452;2022-10-23T17:08:12;19.92;;;11.65;;
43114;SDS011;28727;50.068;14.452;2022-10-23T17:10:44;17.92;;;12.80;;
43114;SDS011;28727;50.068;14.452;2022-10-23T17:13:19;20.67;;;11.93;;
43114;SDS011;28727;50.068;14.452;2022-10-23T17:15:50;21.83;;;13.57;;
43114;SDS011;28727;50.068;14.452;2022-10-23T17:18:22;20.75;;;12.57;;
43114;SDS011;28727;50.068;14.452;2022-10-23T17:20:57;18.80;;;13.27;;
43114;SDS011;28727;50.068;14.452;2022-10-23T17:23:30;20.98;;;13.85;;
43114;SDS011;28727;50.068;14.452;2022-10-23T17:26:04;16.38;;;13.02;;
43114;SDS011;28727;50.068;14.452;2022-10-23T17:28:39;20.30;;;12.95;;